Time;durP1;ratioP1;P1;durP2;ratioP2;P2;SDS_P1;SDS_P2;PMS_P1;PMS_P2;Temp;Humidity;BMP_temperature;BMP_pressure;BME280_temperature;BME280_humidity;BME280_pressure;Samples;Min_cycle;Max_cycle;Signal;HPM_P1;HPM_P2
2021/01/02 00:00:45;;;;;;;23.53;17.27;;;;;;;;;;5062586;28;20484;-55
2021/01/02 00:03:16;;;;;;;26.60;18.90;;;;;;;;;;5062699;28;20059;-55
2021/01/02 00:05:51;;;;;;;26.87;19.13;;;;;;;;;;5063455;28;20017;-56
2021/01/02 00:08:19;;;;;;;26.20;17.70;;;;;;;;;;5066655;28;20104;-53
2021/01/02 00:11:00;;;;;;;23.73;16.53;;;;;;;;;;5057158;28;20086;-57
2021/01/02 00:13:31;;;;;;;24.97;16.80;;;;;;;;;;5068862;28;20013;-57
2021/01/02 00:15:56;;;;;;;21.03;14.93;;;;;;;;;;5072284;28;20044;-54
2021/01/02 00:18:46;;;;;;;20.77;15.30;;;;;;;;;;5067778;28;20048;-56
2021/01/02 00:21:11;;;;;;;20.90;15.20;;;;;;;;;;5052170;28;20067;-54
2021/01/02 00:23:55;;;;;;;20.07;14.10;;;;;;;;;;5051949;28;20044;-56
2021/01/02 00:26:33;;;;;;;19.93;14.10;;;;;;;;;;5056918;28;20021;-55
2021/01/02 00:28:59;;;;;;;21.37;14.73;;;;;;;;;;5049982;28;20051;-55
2021/01/02 00:31:27;;;;;;;21.87;14.70;;;;;;;;;;5057247;28;20356;-57
2021/01/02 00:34:04;;;;;;;20.47;14.27;;;;;;;;;;5070116;28;20017;-56
2021/01/02 00:36:29;;;;;;;19.57;13.43;;;;;;;;;;5056354;28;20021;-56
2021/01/02 00:38:55;;;;;;;22.93;14.23;;;;;;;;;;5068663;28;20107;-56
2021/01/02 00:41:20;;;;;;;19.70;14.00;;;;;;;;;;5067148;28;20020;-53
2021/01/02 00:43:46;;;;;;;21.00;13.33;;;;;;;;;;5051992;28;20017;-56
2021/01/02 00:46:11;;;;;;;19.70;13.30;;;;;;;;;;5070744;28;20025;-57
2021/01/02 00:48:38;;;;;;;20.27;13.27;;;;;;;;;;5068469;28;20013;-58
2021/01/02 00:51:03;;;;;;;19.30;12.70;;;;;;;;;;5074105;28;20066;-57
2021/01/02 00:53:51;;;;;;;20.67;13.27;;;;;;;;;;5055497;28;20033;-57
2021/01/02 00:56:49;;;;;;;20.63;13.80;;;;;;;;;;5051305;28;20446;-57
2021/01/02 00:59:29;;;;;;;19.93;12.93;;;;;;;;;;5034798;28;20387;-56
2021/01/02 01:01:54;;;;;;;22.13;13.23;;;;;;;;;;5067178;28;20025;-53
2021/01/02 01:04:32;;;;;;;20.13;13.27;;;;;;;;;;5074644;28;20021;-57
2021/01/02 01:06:59;;;;;;;20.73;13.70;;;;;;;;;;5073518;28;20012;-57
2021/01/02 01:09:24;;;;;;;22.57;14.03;;;;;;;;;;5080805;28;20053;-57
2021/01/02 01:11:52;;;;;;;20.80;14.10;;;;;;;;;;5095736;28;20048;-57
2021/01/02 01:14:18;;;;;;;23.87;14.33;;;;;;;;;;5074739;28;20070;-54
2021/01/02 01:16:44;;;;;;;22.23;14.37;;;;;;;;;;5064175;28;20115;-57
2021/01/02 01:19:11;;;;;;;24.00;13.97;;;;;;;;;;5079883;28;20017;-54
2021/01/02 01:21:40;;;;;;;21.40;13.77;;;;;;;;;;5074283;28;20013;-56
2021/01/02 01:24:12;;;;;;;21.53;13.37;;;;;;;;;;5059538;28;20036;-56
2021/01/02 01:26:56;;;;;;;20.13;13.80;;;;;;;;;;5067714;28;20017;-56
2021/01/02 01:29:24;;;;;;;20.90;13.63;;;;;;;;;;5066753;28;20443;-56
2021/01/02 01:31:54;;;;;;;22.33;13.77;;;;;;;;;;5061365;28;20547;-57
2021/01/02 01:34:21;;;;;;;22.53;14.40;;;;;;;;;;5069789;28;20502;-55
2021/01/02 01:36:47;;;;;;;22.40;13.80;;;;;;;;;;5061092;28;20017;-54
2021/01/02 01:39:12;;;;;;;21.37;13.67;;;;;;;;;;5059665;28;20115;-56
2021/01/02 01:41:39;;;;;;;22.37;14.53;;;;;;;;;;5074087;28;20021;-56
2021/01/02 01:44:13;;;;;;;23.07;14.67;;;;;;;;;;5071756;28;20479;-56
2021/01/02 01:46:44;;;;;;;21.87;13.97;;;;;;;;;;5074979;28;20009;-56
2021/01/02 01:49:10;;;;;;;22.40;14.10;;;;;;;;;;5067355;28;20016;-55
2021/01/02 01:51:38;;;;;;;28.50;16.57;;;;;;;;;;5069691;28;20028;-56
2021/01/02 01:54:21;;;;;;;23.03;14.27;;;;;;;;;;5060890;28;20471;-56
2021/01/02 01:56:50;;;;;;;22.07;14.00;;;;;;;;;;5054297;28;20476;-56
2021/01/02 01:59:15;;;;;;;23.30;15.37;;;;;;;;;;5066794;28;20071;-56
2021/01/02 02:01:44;;;;;;;21.50;14.33;;;;;;;;;;5067920;28;20103;-55
2021/01/02 02:04:09;;;;;;;22.83;14.07;;;;;;;;;;5054484;28;20055;-56
2021/01/02 02:06:36;;;;;;;21.80;15.00;;;;;;;;;;5056359;28;20040;-55
2021/01/02 02:09:02;;;;;;;24.03;14.63;;;;;;;;;;5067349;28;20479;-53
2021/01/02 02:11:30;;;;;;;24.57;15.53;;;;;;;;;;5077558;28;20047;-57
2021/01/02 02:13:59;;;;;;;25.37;15.63;;;;;;;;;;5067002;28;20467;-57
2021/01/02 02:16:32;;;;;;;23.87;15.33;;;;;;;;;;5070962;28;20052;-57
2021/01/02 02:18:58;;;;;;;21.73;13.90;;;;;;;;;;5070531;28;20039;-55
2021/01/02 02:21:27;;;;;;;22.33;14.70;;;;;;;;;;5067984;28;20020;-53
2021/01/02 02:23:57;;;;;;;24.47;15.23;;;;;;;;;;5070703;28;20059;-57
2021/01/02 02:26:36;;;;;;;25.80;15.17;;;;;;;;;;5074611;28;20360;-56
2021/01/02 02:29:04;;;;;;;25.60;15.63;;;;;;;;;;5049643;28;20499;-57
2021/01/02 02:31:32;;;;;;;23.50;14.67;;;;;;;;;;5073621;28;20622;-56
2021/01/02 02:33:57;;;;;;;24.93;14.93;;;;;;;;;;5077114;28;20053;-57
2021/01/02 02:36:23;;;;;;;24.00;15.40;;;;;;;;;;5061535;28;20113;-56
2021/01/02 02:38:49;;;;;;;26.40;16.13;;;;;;;;;;5055482;28;20098;-55
2021/01/02 02:41:14;;;;;;;26.73;15.47;;;;;;;;;;5072364;28;20027;-55
2021/01/02 02:43:41;;;;;;;23.10;14.43;;;;;;;;;;5072506;28;20023;-55
2021/01/02 02:46:11;;;;;;;21.67;14.17;;;;;;;;;;5073845;28;20490;-56
2021/01/02 02:48:37;;;;;;;25.87;15.50;;;;;;;;;;5053344;28;20032;-55
2021/01/02 02:51:03;;;;;;;27.23;15.40;;;;;;;;;;5064875;28;20099;-56
2021/01/02 02:53:28;;;;;;;27.20;16.23;;;;;;;;;;5057907;28;20997;-56
2021/01/02 02:55:54;;;;;;;23.70;14.33;;;;;;;;;;5053968;28;20020;-57
2021/01/02 02:58:19;;;;;;;27.77;15.93;;;;;;;;;;5077380;28;20024;-56
2021/01/02 03:00:44;;;;;;;26.00;15.23;;;;;;;;;;5063155;28;20027;-53
2021/01/02 03:03:10;;;;;;;26.33;15.50;;;;;;;;;;5063734;28;20070;-55
2021/01/02 03:05:55;;;;;;;29.88;16.10;;;;;;;;;;5051285;28;20033;-57
2021/01/02 03:08:20;;;;;;;29.03;17.40;;;;;;;;;;5046112;28;20040;-54
2021/01/02 03:10:46;;;;;;;29.77;17.33;;;;;;;;;;5048980;28;20044;-56
2021/01/02 03:13:11;;;;;;;30.67;18.80;;;;;;;;;;5048437;28;20376;-52
2021/01/02 03:15:41;;;;;;;31.30;18.03;;;;;;;;;;5049515;28;20045;-57
2021/01/02 03:18:06;;;;;;;31.93;18.33;;;;;;;;;;5048972;28;20512;-55
2021/01/02 03:20:32;;;;;;;32.40;17.93;;;;;;;;;;5034409;28;20044;-54
2021/01/02 03:22:57;;;;;;;31.80;17.37;;;;;;;;;;5042938;28;20067;-54
2021/01/02 03:25:22;;;;;;;27.40;16.47;;;;;;;;;;5050294;28;20047;-58
2021/01/02 03:27:51;;;;;;;28.53;16.70;;;;;;;;;;5050270;28;20090;-55
2021/01/02 03:30:16;;;;;;;27.77;16.00;;;;;;;;;;5047376;28;20152;-55
2021/01/02 03:32:42;;;;;;;26.80;16.53;;;;;;;;;;5048838;28;20598;-54
2021/01/02 03:35:11;;;;;;;26.10;14.73;;;;;;;;;;5039988;28;20021;-55
2021/01/02 03:37:37;;;;;;;26.00;15.97;;;;;;;;;;5051173;28;20051;-52
2021/01/02 03:40:04;;;;;;;27.97;16.00;;;;;;;;;;5066997;28;20094;-54
2021/01/02 03:42:29;;;;;;;26.50;15.67;;;;;;;;;;5072440;28;20054;-53
2021/01/02 03:44:54;;;;;;;24.53;15.23;;;;;;;;;;5065871;28;20023;-57
2021/01/02 03:47:20;;;;;;;23.80;14.63;;;;;;;;;;5073442;28;20074;-55
2021/01/02 03:49:45;;;;;;;25.07;14.87;;;;;;;;;;5068905;28;20021;-56
2021/01/02 03:52:10;;;;;;;22.10;14.57;;;;;;;;;;5057583;28;20075;-56
2021/01/02 03:54:35;;;;;;;21.40;13.40;;;;;;;;;;5055621;28;20021;-55
2021/01/02 03:57:01;;;;;;;25.63;15.90;;;;;;;;;;5064407;28;20029;-54
2021/01/02 03:59:26;;;;;;;25.23;15.10;;;;;;;;;;5052754;28;20052;-55
2021/01/02 04:01:59;;;;;;;25.20;15.40;;;;;;;;;;5068050;28;20399;-56
2021/01/02 04:04:25;;;;;;;24.73;14.70;;;;;;;;;;5052647;28;20375;-54
2021/01/02 04:06:53;;;;;;;21.37;13.17;;;;;;;;;;5071453;28;20035;-55
2021/01/02 04:09:19;;;;;;;22.37;14.03;;;;;;;;;;5062447;28;20025;-54
2021/01/02 04:11:44;;;;;;;24.10;13.50;;;;;;;;;;5071823;28;20158;-55
2021/01/02 04:14:10;;;;;;;21.70;14.10;;;;;;;;;;5072285;28;20024;-55
2021/01/02 04:16:36;;;;;;;22.73;14.00;;;;;;;;;;5071325;28;20024;-53
2021/01/02 04:19:01;;;;;;;22.77;14.00;;;;;;;;;;5068037;28;20104;-52
2021/01/02 04:21:26;;;;;;;22.43;14.33;;;;;;;;;;5071644;28;20024;-55
2021/01/02 04:23:51;;;;;;;26.27;13.87;;;;;;;;;;5069544;28;20041;-56
2021/01/02 04:26:20;;;;;;;25.93;15.67;;;;;;;;;;5056378;28;20047;-55
2021/01/02 04:28:46;;;;;;;25.10;15.67;;;;;;;;;;5055178;28;20469;-56
2021/01/02 04:31:11;;;;;;;25.70;15.73;;;;;;;;;;5069797;28;20024;-57
2021/01/02 04:33:37;;;;;;;30.90;16.53;;;;;;;;;;5070640;28;20013;-56
2021/01/02 04:36:03;;;;;;;27.93;15.83;;;;;;;;;;5061818;28;20103;-55
2021/01/02 04:38:28;;;;;;;28.10;16.10;;;;;;;;;;5069432;28;20869;-54
2021/01/02 04:40:54;;;;;;;28.40;17.27;;;;;;;;;;5075998;28;20012;-55
2021/01/02 04:43:20;;;;;;;32.13;17.10;;;;;;;;;;5074452;28;20089;-56
2021/01/02 04:45:45;;;;;;;31.30;16.90;;;;;;;;;;5075153;28;20482;-56
2021/01/02 04:48:10;;;;;;;25.00;14.23;;;;;;;;;;5067171;28;20028;-54
2021/01/02 04:50:36;;;;;;;26.30;15.33;;;;;;;;;;5054524;28;20017;-57
2021/01/02 04:53:03;;;;;;;22.93;14.03;;;;;;;;;;5073391;28;20012;-55
2021/01/02 04:55:30;;;;;;;21.23;13.70;;;;;;;;;;5076470;28;20027;-53
2021/01/02 04:57:57;;;;;;;21.83;14.20;;;;;;;;;;5067051;28;20471;-55
2021/01/02 05:00:23;;;;;;;25.27;15.00;;;;;;;;;;5063380;28;20067;-56
2021/01/02 05:02:48;;;;;;;21.70;13.80;;;;;;;;;;5075517;28;20106;-52
2021/01/02 05:05:14;;;;;;;24.03;14.87;;;;;;;;;;5075268;28;20540;-57
2021/01/02 05:07:39;;;;;;;21.90;13.73;;;;;;;;;;5075458;28;20020;-54
2021/01/02 05:10:05;;;;;;;26.83;15.20;;;;;;;;;;5072247;28;20012;-56
2021/01/02 05:12:30;;;;;;;26.73;16.23;;;;;;;;;;5075424;28;20484;-56
2021/01/02 05:14:59;;;;;;;26.87;14.77;;;;;;;;;;5074777;28;20035;-54
2021/01/02 05:17:26;;;;;;;20.60;12.67;;;;;;;;;;5063057;28;20476;-53
2021/01/02 05:19:58;;;;;;;23.77;14.13;;;;;;;;;;5060309;28;20029;-55
2021/01/02 05:22:24;;;;;;;19.20;12.90;;;;;;;;;;5073920;28;20056;-56
2021/01/02 05:25:02;;;;;;;21.03;12.97;;;;;;;;;;5074522;28;20068;-55
2021/01/02 05:27:31;;;;;;;24.93;14.57;;;;;;;;;;5072179;28;20074;-54
2021/01/02 05:30:10;;;;;;;21.20;13.90;;;;;;;;;;5070466;28;20038;-57
2021/01/02 05:32:52;;;;;;;24.67;13.50;;;;;;;;;;5069666;28;20020;-56
2021/01/02 05:35:20;;;;;;;20.13;13.10;;;;;;;;;;5069543;28;20132;-56
2021/01/02 05:37:46;;;;;;;21.43;13.17;;;;;;;;;;5080197;28;20581;-54
2021/01/02 05:40:12;;;;;;;22.97;13.50;;;;;;;;;;5071680;28;20027;-53
2021/01/02 05:42:38;;;;;;;20.60;13.03;;;;;;;;;;5074070;28;20111;-54
2021/01/02 05:45:03;;;;;;;23.17;13.10;;;;;;;;;;5054896;28;20435;-56
2021/01/02 05:47:29;;;;;;;25.83;14.13;;;;;;;;;;5071699;28;20180;-52
2021/01/02 05:49:55;;;;;;;23.23;13.83;;;;;;;;;;5075871;28;20019;-56
2021/01/02 05:52:20;;;;;;;26.17;13.97;;;;;;;;;;5060823;28;20128;-56
2021/01/02 05:54:49;;;;;;;23.03;13.50;;;;;;;;;;5070979;28;20538;-57
2021/01/02 05:57:23;;;;;;;18.33;11.93;;;;;;;;;;5073561;28;20021;-57
2021/01/02 05:59:51;;;;;;;22.40;13.80;;;;;;;;;;5051713;28;20033;-52
2021/01/02 06:02:29;;;;;;;21.43;13.10;;;;;;;;;;5054530;28;20032;-52
2021/01/02 06:04:55;;;;;;;21.13;13.67;;;;;;;;;;5055964;28;20090;-55
2021/01/02 06:07:21;;;;;;;22.50;13.33;;;;;;;;;;5054583;28;20451;-55
2021/01/02 06:09:47;;;;;;;20.57;13.17;;;;;;;;;;5057461;28;20056;-56
2021/01/02 06:12:16;;;;;;;20.90;12.73;;;;;;;;;;5071224;28;20396;-55
2021/01/02 06:14:41;;;;;;;20.53;12.27;;;;;;;;;;5061236;28;20100;-56
2021/01/02 06:17:07;;;;;;;21.17;13.17;;;;;;;;;;5059031;28;20115;-56
2021/01/02 06:19:32;;;;;;;21.23;13.63;;;;;;;;;;5070172;28;20033;-55
2021/01/02 06:21:58;;;;;;;21.17;12.67;;;;;;;;;;5073274;28;20031;-53
2021/01/02 06:24:24;;;;;;;20.27;12.97;;;;;;;;;;5067762;28;20440;-56
2021/01/02 06:26:50;;;;;;;20.73;13.23;;;;;;;;;;5053627;28;20029;-55
2021/01/02 06:29:15;;;;;;;18.07;11.13;;;;;;;;;;5066455;28;20021;-55
2021/01/02 06:31:41;;;;;;;19.50;12.60;;;;;;;;;;5055243;28;20074;-53
2021/01/02 06:34:06;;;;;;;18.90;11.87;;;;;;;;;;5073828;28;20360;-56
2021/01/02 06:36:33;;;;;;;18.60;12.43;;;;;;;;;;5070687;28;20111;-55
2021/01/02 06:39:17;;;;;;;21.80;13.00;;;;;;;;;;5065373;28;20032;-57
2021/01/02 06:41:43;;;;;;;18.77;12.20;;;;;;;;;;5064118;28;20017;-56
2021/01/02 06:44:08;;;;;;;21.40;12.53;;;;;;;;;;5053952;28;20521;-56
2021/01/02 06:46:34;;;;;;;19.20;11.83;;;;;;;;;;5053061;28;20134;-55
2021/01/02 06:48:59;;;;;;;19.27;12.20;;;;;;;;;;5066991;28;20031;-55
2021/01/02 06:51:28;;;;;;;20.10;12.73;;;;;;;;;;5055863;28;20020;-54
2021/01/02 06:53:54;;;;;;;21.63;12.73;;;;;;;;;;5071810;28;20017;-54
2021/01/02 06:56:28;;;;;;;22.80;13.73;;;;;;;;;;5053472;28;20009;-56
2021/01/02 06:58:53;;;;;;;23.00;13.57;;;;;;;;;;5051637;28;20096;-55
2021/01/02 07:01:18;;;;;;;22.70;13.57;;;;;;;;;;5061474;28;20115;-57
2021/01/02 07:03:47;;;;;;;21.70;13.40;;;;;;;;;;5073292;28;20020;-58
2021/01/02 07:06:24;;;;;;;22.40;14.00;;;;;;;;;;5073603;28;20090;-57
2021/01/02 07:08:50;;;;;;;23.97;13.47;;;;;;;;;;5073010;28;20024;-56
2021/01/02 07:11:30;;;;;;;22.00;12.97;;;;;;;;;;5053780;28;20021;-57
2021/01/02 07:14:14;;;;;;;23.00;13.80;;;;;;;;;;5062303;28;20009;-54
2021/01/02 07:16:42;;;;;;;24.07;12.97;;;;;;;;;;5054181;28;20017;-52
2021/01/02 07:19:07;;;;;;;21.33;12.63;;;;;;;;;;5066921;28;20107;-53
2021/01/02 07:21:33;;;;;;;22.17;13.33;;;;;;;;;;5069086;28;20044;-55
2021/01/02 07:24:18;;;;;;;23.50;13.60;;;;;;;;;;5059184;28;20056;-57
2021/01/02 07:26:43;;;;;;;22.52;13.50;;;;;;;;;;5055491;28;20029;-54
2021/01/02 07:29:16;;;;;;;20.90;13.70;;;;;;;;;;5061503;28;20386;-57
2021/01/02 07:31:41;;;;;;;21.53;13.40;;;;;;;;;;5056534;28;20091;-57
2021/01/02 07:34:15;;;;;;;22.13;13.73;;;;;;;;;;5062093;28;20140;-52
2021/01/02 07:36:41;;;;;;;21.13;13.10;;;;;;;;;;5062468;28;20025;-56
2021/01/02 07:39:06;;;;;;;23.90;13.73;;;;;;;;;;5067896;28;20028;-53
2021/01/02 07:41:32;;;;;;;20.47;12.67;;;;;;;;;;5065358;28;20021;-56
2021/01/02 07:43:58;;;;;;;21.00;12.67;;;;;;;;;;5056142;28;20554;-56
2021/01/02 07:46:23;;;;;;;23.53;13.83;;;;;;;;;;5059263;28;20025;-57
2021/01/02 07:48:53;;;;;;;22.40;11.87;;;;;;;;;;5064826;28;20119;-56
2021/01/02 07:51:19;;;;;;;18.17;12.13;;;;;;;;;;5055947;28;20017;-57
2021/01/02 07:53:51;;;;;;;18.90;11.60;;;;;;;;;;5067131;28;20074;-57
2021/01/02 07:56:31;;;;;;;19.33;11.93;;;;;;;;;;5061384;28;20025;-54
2021/01/02 07:58:57;;;;;;;19.97;11.80;;;;;;;;;;5056082;28;20028;-56
2021/01/02 08:01:22;;;;;;;20.43;12.37;;;;;;;;;;5069581;28;20022;-57
2021/01/02 08:03:48;;;;;;;21.23;12.03;;;;;;;;;;5052335;28;20066;-55
2021/01/02 08:06:15;;;;;;;18.10;11.67;;;;;;;;;;5051938;28;20025;-54
2021/01/02 08:08:40;;;;;;;18.23;11.50;;;;;;;;;;5053397;28;20021;-56
2021/01/02 08:11:14;;;;;;;21.37;12.40;;;;;;;;;;5061089;28;20074;-56
2021/01/02 08:13:39;;;;;;;21.03;12.47;;;;;;;;;;5052799;28;20387;-54
2021/01/02 08:16:05;;;;;;;20.47;12.50;;;;;;;;;;5069224;28;20021;-57
2021/01/02 08:18:30;;;;;;;17.63;11.17;;;;;;;;;;5065408;28;20017;-54
2021/01/02 08:21:01;;;;;;;19.80;11.20;;;;;;;;;;5068686;28;20017;-56
2021/01/02 08:23:27;;;;;;;16.13;11.27;;;;;;;;;;5055070;28;20041;-56
2021/01/02 08:25:53;;;;;;;17.77;11.93;;;;;;;;;;5064021;28;20503;-57
2021/01/02 08:28:18;;;;;;;19.00;11.57;;;;;;;;;;5057644;28;20031;-55
2021/01/02 08:30:43;;;;;;;19.63;12.47;;;;;;;;;;5050363;28;20355;-56
2021/01/02 08:33:11;;;;;;;18.63;11.30;;;;;;;;;;5067910;28;20012;-55
2021/01/02 08:35:42;;;;;;;19.00;11.17;;;;;;;;;;5058704;28;20009;-54
2021/01/02 08:38:09;;;;;;;17.10;11.67;;;;;;;;;;5071567;28;20091;-52
2021/01/02 08:40:41;;;;;;;20.10;11.73;;;;;;;;;;5058110;28;20410;-57
2021/01/02 08:43:06;;;;;;;16.70;11.10;;;;;;;;;;5051810;28;20032;-55
2021/01/02 08:45:39;;;;;;;17.43;10.23;;;;;;;;;;5065266;28;20255;-57
2021/01/02 08:48:13;;;;;;;16.50;11.43;;;;;;;;;;5059289;28;20457;-55
2021/01/02 08:50:39;;;;;;;16.87;11.00;;;;;;;;;;5068294;28;20031;-56
2021/01/02 08:53:04;;;;;;;17.53;10.37;;;;;;;;;;5060920;28;20487;-53
2021/01/02 08:55:30;;;;;;;18.70;11.20;;;;;;;;;;5052103;28;20468;-56
2021/01/02 08:57:55;;;;;;;17.70;11.30;;;;;;;;;;5057987;28;20020;-53
2021/01/02 09:00:29;;;;;;;16.67;10.97;;;;;;;;;;5068589;28;20467;-57
2021/01/02 09:02:54;;;;;;;19.17;11.03;;;;;;;;;;5067023;28;20497;-56
2021/01/02 09:05:35;;;;;;;16.83;11.03;;;;;;;;;;5058008;28;20037;-56
2021/01/02 09:08:02;;;;;;;18.53;10.43;;;;;;;;;;5062153;28;20383;-57
2021/01/02 09:10:31;;;;;;;15.20;10.20;;;;;;;;;;5068894;28;20020;-54
2021/01/02 09:13:06;;;;;;;19.17;11.13;;;;;;;;;;5071382;28;20082;-56
2021/01/02 09:15:47;;;;;;;17.43;11.00;;;;;;;;;;5071092;28;20486;-55
2021/01/02 09:18:13;;;;;;;17.40;11.60;;;;;;;;;;5066189;28;20028;-50
2021/01/02 09:20:38;;;;;;;16.30;10.77;;;;;;;;;;5066619;28;20074;-57
2021/01/02 09:23:04;;;;;;;16.40;11.07;;;;;;;;;;5057654;28;20049;-56
2021/01/02 09:25:30;;;;;;;15.50;10.23;;;;;;;;;;5059443;28;20013;-55
2021/01/02 09:27:55;;;;;;;18.10;10.60;;;;;;;;;;5060975;28;20028;-55
2021/01/02 09:30:21;;;;;;;18.70;11.70;;;;;;;;;;5056350;28;20471;-57
2021/01/02 09:32:46;;;;;;;16.90;10.70;;;;;;;;;;5075006;28;20020;-53
2021/01/02 09:35:12;;;;;;;14.47;10.37;;;;;;;;;;5072254;28;20062;-52
2021/01/02 09:37:37;;;;;;;15.23;9.87;;;;;;;;;;5068631;28;20048;-56
2021/01/02 09:40:13;;;;;;;17.57;10.73;;;;;;;;;;5060547;28;20021;-57
2021/01/02 09:42:38;;;;;;;17.03;11.60;;;;;;;;;;5072937;28;20025;-57
2021/01/02 09:45:04;;;;;;;17.40;11.47;;;;;;;;;;5055852;28;20533;-58
2021/01/02 09:47:29;;;;;;;15.70;11.07;;;;;;;;;;5059139;28;20472;-57
2021/01/02 09:49:54;;;;;;;17.23;10.03;;;;;;;;;;5074231;28;20072;-57
2021/01/02 09:52:19;;;;;;;15.90;10.33;;;;;;;;;;5066218;28;20017;-55
2021/01/02 09:54:45;;;;;;;14.70;10.37;;;;;;;;;;5054393;28;20013;-56
2021/01/02 09:57:10;;;;;;;16.10;9.50;;;;;;;;;;5055297;28;20025;-56
2021/01/02 09:59:35;;;;;;;16.90;11.43;;;;;;;;;;5049761;28;20040;-56
2021/01/02 10:02:00;;;;;;;17.97;11.87;;;;;;;;;;5067109;28;20379;-57
2021/01/02 10:04:26;;;;;;;15.93;10.57;;;;;;;;;;5073920;28;20062;-57
2021/01/02 10:06:51;;;;;;;16.17;11.57;;;;;;;;;;5054711;28;20024;-55
2021/01/02 10:09:16;;;;;;;16.50;11.40;;;;;;;;;;5050563;28;20064;-57
2021/01/02 10:11:42;;;;;;;17.00;11.67;;;;;;;;;;5063606;28;20017;-56
2021/01/02 10:14:07;;;;;;;15.83;11.00;;;;;;;;;;5055107;28;20017;-54
2021/01/02 10:16:33;;;;;;;15.50;10.67;;;;;;;;;;5059351;28;20021;-56
2021/01/02 10:18:58;;;;;;;14.52;10.05;;;;;;;;;;5057295;28;20025;-57
2021/01/02 10:21:24;;;;;;;15.40;11.33;;;;;;;;;;5054134;28;20392;-58
2021/01/02 10:23:49;;;;;;;15.05;11.02;;;;;;;;;;5068681;28;20495;-54
2021/01/02 10:26:23;;;;;;;16.17;11.27;;;;;;;;;;5063908;28;20052;-56
2021/01/02 10:28:49;;;;;;;13.97;9.93;;;;;;;;;;5067310;28;20032;-58
2021/01/02 10:31:20;;;;;;;13.02;9.52;;;;;;;;;;5054217;28;20569;-55
2021/01/02 10:33:46;;;;;;;11.63;7.85;;;;;;;;;;5053669;28;20020;-57
2021/01/02 10:36:11;;;;;;;10.65;7.50;;;;;;;;;;5056588;28;20376;-57
2021/01/02 10:38:36;;;;;;;11.93;7.53;;;;;;;;;;5051531;28;20573;-55
2021/01/02 10:41:02;;;;;;;9.23;6.65;;;;;;;;;;5053940;28;20044;-53
2021/01/02 10:43:27;;;;;;;9.73;6.03;;;;;;;;;;5072553;28;20032;-58
2021/01/02 10:45:52;;;;;;;8.30;5.78;;;;;;;;;;5070091;28;20025;-56
2021/01/02 10:48:17;;;;;;;9.57;6.95;;;;;;;;;;5051878;28;20017;-57
2021/01/02 10:50:42;;;;;;;10.63;6.85;;;;;;;;;;5060062;28;20110;-57
2021/01/02 10:53:08;;;;;;;7.30;5.20;;;;;;;;;;5072209;28;20025;-58
2021/01/02 10:55:33;;;;;;;5.57;4.05;;;;;;;;;;5072258;28;20016;-57
2021/01/02 10:57:58;;;;;;;6.22;4.10;;;;;;;;;;5056478;28;20427;-58
2021/01/02 11:00:23;;;;;;;7.50;5.38;;;;;;;;;;5055137;28;20471;-58
2021/01/02 11:02:49;;;;;;;5.30;4.03;;;;;;;;;;5052861;28;20055;-57
2021/01/02 11:05:14;;;;;;;7.80;4.50;;;;;;;;;;5052795;28;20112;-58
2021/01/02 11:07:39;;;;;;;7.20;5.18;;;;;;;;;;5052798;28;20379;-56
2021/01/02 11:10:05;;;;;;;6.55;4.78;;;;;;;;;;5059773;28;20060;-56
2021/01/02 11:12:30;;;;;;;6.15;4.20;;;;;;;;;;5054362;28;20028;-55
2021/01/02 11:14:58;;;;;;;2.60;2.00;;;;;;;;;;5065547;28;20064;-56
2021/01/02 11:17:23;;;;;;;5.43;3.97;;;;;;;;;;5054170;28;20053;-56
2021/01/02 11:19:48;;;;;;;7.00;4.50;;;;;;;;;;5061706;28;20056;-56
2021/01/02 11:22:14;;;;;;;4.85;3.40;;;;;;;;;;5072130;28;20096;-54
2021/01/02 11:24:41;;;;;;;4.50;3.28;;;;;;;;;;5055706;28;20041;-53
2021/01/02 11:27:06;;;;;;;4.18;3.15;;;;;;;;;;5064511;28;20060;-53
2021/01/02 11:29:32;;;;;;;5.78;3.38;;;;;;;;;;5069190;28;20043;-56
2021/01/02 11:31:58;;;;;;;7.25;3.90;;;;;;;;;;5055064;28;20372;-58
2021/01/02 11:34:24;;;;;;;5.15;4.00;;;;;;;;;;5053217;28;20017;-55
2021/01/02 11:36:51;;;;;;;4.88;3.63;;;;;;;;;;5057225;28;20475;-55
2021/01/02 11:39:16;;;;;;;6.85;4.20;;;;;;;;;;5058622;28;20025;-57
2021/01/02 11:41:42;;;;;;;7.60;5.38;;;;;;;;;;5059071;28;20032;-57
2021/01/02 11:44:08;;;;;;;6.57;5.00;;;;;;;;;;5052907;28;20096;-55
2021/01/02 11:46:35;;;;;;;8.32;4.70;;;;;;;;;;5055301;28;20031;-56
2021/01/02 11:49:01;;;;;;;6.40;4.38;;;;;;;;;;5056501;28;20029;-57
2021/01/02 11:51:26;;;;;;;8.30;4.80;;;;;;;;;;5061131;28;20071;-57
2021/01/02 11:53:51;;;;;;;6.00;4.07;;;;;;;;;;5055745;28;20045;-56
2021/01/02 11:56:22;;;;;;;7.13;4.88;;;;;;;;;;5069543;28;20112;-56
2021/01/02 11:58:47;;;;;;;6.07;4.88;;;;;;;;;;5048915;28;20079;-57
2021/01/02 12:01:13;;;;;;;7.43;4.93;;;;;;;;;;5056924;28;20020;-57
2021/01/02 12:03:38;;;;;;;8.40;4.87;;;;;;;;;;5066392;28;20436;-57
2021/01/02 12:06:03;;;;;;;6.20;3.70;;;;;;;;;;5057054;28;20061;-56
2021/01/02 12:08:28;;;;;;;4.57;2.38;;;;;;;;;;5054115;28;20108;-57
2021/01/02 12:10:53;;;;;;;3.60;2.45;;;;;;;;;;5057368;28;20383;-56
2021/01/02 12:13:19;;;;;;;3.10;2.53;;;;;;;;;;5060249;28;20368;-53
2021/01/02 12:15:44;;;;;;;4.63;3.10;;;;;;;;;;5054521;28;20464;-58
2021/01/02 12:18:09;;;;;;;3.80;2.93;;;;;;;;;;5059196;28;20476;-58
2021/01/02 12:20:34;;;;;;;4.70;2.97;;;;;;;;;;5049771;28;20037;-56
2021/01/02 12:22:59;;;;;;;4.03;3.07;;;;;;;;;;5054472;28;20056;-55
2021/01/02 12:25:25;;;;;;;4.55;3.08;;;;;;;;;;5054952;28;20078;-54
2021/01/02 12:27:51;;;;;;;3.72;2.95;;;;;;;;;;5058013;28;20097;-57
2021/01/02 12:30:16;;;;;;;3.92;2.83;;;;;;;;;;5058481;28;20106;-58
2021/01/02 12:32:41;;;;;;;5.88;3.63;;;;;;;;;;5055249;28;20483;-57
2021/01/02 12:35:07;;;;;;;4.47;2.70;;;;;;;;;;5052419;28;20017;-56
2021/01/02 12:37:32;;;;;;;5.25;2.95;;;;;;;;;;5051705;28;20021;-56
2021/01/02 12:39:57;;;;;;;4.15;2.90;;;;;;;;;;5059545;28;20021;-57
2021/01/02 12:42:23;;;;;;;6.32;3.65;;;;;;;;;;5064490;28;20021;-56
2021/01/02 12:44:49;;;;;;;5.20;3.53;;;;;;;;;;5059692;28;20100;-58
2021/01/02 12:47:15;;;;;;;5.68;3.63;;;;;;;;;;5060554;28;20131;-58
2021/01/02 12:49:42;;;;;;;4.13;3.47;;;;;;;;;;5068902;28;20017;-56
2021/01/02 12:52:08;;;;;;;4.05;3.03;;;;;;;;;;5065722;28;20103;-55
2021/01/02 12:54:33;;;;;;;4.35;3.42;;;;;;;;;;5074956;28;20112;-57
2021/01/02 12:56:59;;;;;;;4.63;3.42;;;;;;;;;;5063792;28;20042;-58
2021/01/02 12:59:26;;;;;;;3.88;2.85;;;;;;;;;;5064146;28;20020;-56
2021/01/02 13:01:52;;;;;;;4.70;3.30;;;;;;;;;;5062535;28;20025;-56
2021/01/02 13:04:17;;;;;;;4.82;3.72;;;;;;;;;;5060669;28;20021;-56
2021/01/02 13:06:49;;;;;;;5.30;3.40;;;;;;;;;;5064873;28;20028;-56
2021/01/02 13:09:14;;;;;;;4.88;3.75;;;;;;;;;;5053212;28;20021;-56
2021/01/02 13:11:45;;;;;;;6.30;4.05;;;;;;;;;;5071211;28;20024;-57
2021/01/02 13:14:11;;;;;;;4.90;3.83;;;;;;;;;;5070082;28;20012;-57
2021/01/02 13:16:36;;;;;;;5.35;4.05;;;;;;;;;;5055832;28;20399;-57
2021/01/02 13:19:01;;;;;;;6.97;4.28;;;;;;;;;;5051596;28;20016;-57
2021/01/02 13:21:26;;;;;;;7.40;3.97;;;;;;;;;;5070938;28;20370;-55
2021/01/02 13:23:51;;;;;;;6.82;4.50;;;;;;;;;;5073686;28;20372;-57
2021/01/02 13:26:17;;;;;;;5.47;3.88;;;;;;;;;;5071680;28;20035;-56
2021/01/02 13:28:42;;;;;;;6.30;5.20;;;;;;;;;;5066011;28;20020;-57
2021/01/02 13:31:08;;;;;;;7.85;4.53;;;;;;;;;;5073742;28;20024;-54
2021/01/02 13:33:34;;;;;;;6.75;4.75;;;;;;;;;;5061308;28;20017;-55
2021/01/02 13:35:59;;;;;;;8.23;4.95;;;;;;;;;;5059711;28;20090;-56
2021/01/02 13:38:24;;;;;;;7.47;5.00;;;;;;;;;;5059962;28;20475;-56
2021/01/02 13:40:49;;;;;;;6.75;4.90;;;;;;;;;;5072595;28;20035;-56
2021/01/02 13:43:15;;;;;;;7.38;5.47;;;;;;;;;;5063980;28;20017;-56
2021/01/02 13:45:40;;;;;;;5.82;4.40;;;;;;;;;;5060235;28;20039;-56
2021/01/02 13:48:05;;;;;;;5.68;3.92;;;;;;;;;;5061530;28;20112;-56
2021/01/02 13:50:30;;;;;;;7.05;5.28;;;;;;;;;;5062759;28;20366;-55
2021/01/02 13:52:55;;;;;;;7.10;5.07;;;;;;;;;;5063084;28;20013;-57
2021/01/02 13:55:21;;;;;;;6.53;4.47;;;;;;;;;;5072293;28;20020;-55
2021/01/02 13:57:46;;;;;;;5.93;4.20;;;;;;;;;;5076872;28;20029;-56
2021/01/02 14:00:11;;;;;;;7.73;4.10;;;;;;;;;;5067833;28;20033;-57
2021/01/02 14:02:37;;;;;;;6.73;4.63;;;;;;;;;;5059439;28;20066;-57
2021/01/02 14:05:02;;;;;;;6.60;4.70;;;;;;;;;;5070264;28;20368;-56
2021/01/02 14:07:28;;;;;;;9.30;5.60;;;;;;;;;;5061259;28;20108;-55
2021/01/02 14:09:53;;;;;;;9.57;5.97;;;;;;;;;;5079863;28;20403;-58
2021/01/02 14:12:18;;;;;;;7.10;5.43;;;;;;;;;;5088876;28;20085;-57
2021/01/02 14:14:44;;;;;;;5.80;4.70;;;;;;;;;;5055615;28;20472;-57
2021/01/02 14:17:10;;;;;;;8.93;5.27;;;;;;;;;;5070552;28;20020;-58
2021/01/02 14:19:37;;;;;;;6.17;4.50;;;;;;;;;;5069002;28;20035;-57
2021/01/02 14:22:02;;;;;;;7.30;5.17;;;;;;;;;;5072107;28;20020;-58
2021/01/02 14:24:29;;;;;;;6.77;5.10;;;;;;;;;;5072468;28;20478;-58